Terminal Aerodrome Forecast
Issued by NWS

Home | Current Version | Previous Version | Text Only | Print | Product List | Glossary On
Versions: 1 2 3 4 5 6 7 8 9 10 11 12 13 14
000
FTAK31 PAFA 241120
TAFASC
TAF
PASC 241120Z 2412/2512 07017KT 1SM BR OVC003
     FM241700 07017KT P6SM OVC006
     FM251000 07017KT 1SM BR OVC003=

USA.gov is the U.S. government's official web portal to all federal, state and local government web resources and services.